Ro Fjord — LFEI — position and weather

sailwx.info

Track history (hours):
 
Tides and Currents Weather Stations Pressure Air Temp Water Temp Dewpoint Dewpoint Depression Visibility Wind Speed Wind Dir Waves Ship Positions

Ro Fjord

Last reported at 2016-May-22 19:33 UTC. Time now 2016-May-25 05:14 UTC.
Position N 62°12' E 005°03'.

Length 72 m; draft 7 m.

Type: Cargo ship. MMSI: 257430000.

Date/timePositionNaut miles runAvg speedWind from/ knotsBaromVisibWave heightAir tempDewpointWater temp
2016-May-22 19:33N 62°12' E 005°03'12 9.0
2016-May-22 18:10N 62°00' E 004°51'5 8.5
2016-May-22 17:33N 61°56' E 004°46'122 8.7
2016-May-22 03:26N 59°55' E 005°30'910.3
2016-May-22 02:33N 59°46' E 005°33'13 9.9
2016-May-22 01:11N 59°36' E 005°16'7 9.4
2016-May-22 00:25N 59°29' E 005°13'8 8.9
2016-May-21 23:33N 59°22' E 005°18'1010.1
2016-May-21 22:33N 59°12' E 005°21'6 6.1
2016-May-21 21:33N 59°11' E 005°33'10 9.6
2016-May-21 20:33N 59°18' E 005°48'6 6.3
2016-May-21 19:31N 59°24' E 005°53'0 0.0
2016-May-21 17:33N 59°24' E 005°53'3 3.2
2016-May-21 16:33N 59°20' E 005°54'1111.1
2016-May-21 15:33N 59°13' E 005°38'9 9.4
2016-May-21 14:33N 59°10' E 005°20'1110.5
2016-May-21 13:29N 59°21' E 005°19'1310.3
2016-May-21 12:15N 59°34' E 005°13'810.8
2016-May-21 11:32N 59°40' E 005°22'1010.7
2016-May-21 10:33N 59°49' E 005°33'116 9.3
2016-May-20 22:08N 61°43' E 004°57'12 7.4
2016-May-20 20:34N 61°53' E 005°10'10 9.5
2016-May-20 19:33N 62°03' E 005°08'12 6.2
2016-May-20 17:33N 62°12' E 005°26'4 0.2
2016-May-20 02:33N 62°12' E 005°34'0 0.0
2016-May-20 01:33N 62°12' E 005°34'0 0.0
2016-May-19 14:04N 62°12' E 005°34'0 0.0
2016-May-19 13:33N 62°12' E 005°34'0 0.0
2016-May-19 12:33N 62°12' E 005°34'  
Track history (hours):
 
Tides and Currents Weather Stations Pressure Air Temp Water Temp Dewpoint Dewpoint Depression Visibility Wind Speed Wind Dir Waves Ship Positions

Ro Fjord

Last reported at 2016-May-22 19:33 UTC. Time now 2016-May-25 05:14 UTC.
Position N 62°12' E 005°03'.

Length 72 m; draft 7 m.

Type: Cargo ship. MMSI: 257430000.

Date/timePositionNaut miles runAvg speedWind from/ knotsBaromVisibWave heightAir tempDewpointWater temp
2016-May-22 19:33N 62°12' E 005°03'12 9.0
2016-May-22 18:10N 62°00' E 004°51'5 8.5
2016-May-22 17:33N 61°56' E 004°46'122 8.7
2016-May-22 03:26N 59°55' E 005°30'910.3
2016-May-22 02:33N 59°46' E 005°33'13 9.9
2016-May-22 01:11N 59°36' E 005°16'7 9.4
2016-May-22 00:25N 59°29' E 005°13'8 8.9
2016-May-21 23:33N 59°22' E 005°18'1010.1
2016-May-21 22:33N 59°12' E 005°21'6 6.1
2016-May-21 21:33N 59°11' E 005°33'10 9.6
2016-May-21 20:33N 59°18' E 005°48'6 6.3
2016-May-21 19:31N 59°24' E 005°53'0 0.0
2016-May-21 17:33N 59°24' E 005°53'3 3.2
2016-May-21 16:33N 59°20' E 005°54'1111.1
2016-May-21 15:33N 59°13' E 005°38'9 9.4
2016-May-21 14:33N 59°10' E 005°20'1110.5
2016-May-21 13:29N 59°21' E 005°19'1310.3
2016-May-21 12:15N 59°34' E 005°13'810.8
2016-May-21 11:32N 59°40' E 005°22'1010.7
2016-May-21 10:33N 59°49' E 005°33'116 9.3
2016-May-20 22:08N 61°43' E 004°57'12 7.4
2016-May-20 20:34N 61°53' E 005°10'10 9.5
2016-May-20 19:33N 62°03' E 005°08'12 6.2
2016-May-20 17:33N 62°12' E 005°26'4 0.2
2016-May-20 02:33N 62°12' E 005°34'0 0.0
2016-May-20 01:33N 62°12' E 005°34'0 0.0
2016-May-19 14:04N 62°12' E 005°34'0 0.0
2016-May-19 13:33N 62°12' E 005°34'0 0.0
2016-May-19 12:33N 62°12' E 005°34'  

Dump ship's entire track history